Time;durP1;ratioP1;P1;durP2;ratioP2;P2;SDS_P1;SDS_P2;PMS_P1;PMS_P2;Temp;Humidity;BMP_temperature;BMP_pressure;BME280_temperature;BME280_humidity;BME280_pressure;Samples;Min_cycle;Max_cycle;Signal;HPM_P1;HPM_P2
2023/12/27 00:01:41;;;;;;;;;;;27.20;99.90;;;;;;4953263;28;19910;-70
2023/12/27 00:04:08;;;;;;;;;;;27.10;99.90;;;;;;4953306;28;19910;-66
2023/12/27 00:06:35;;;;;;;;;;;26.90;99.90;;;;;;4953302;28;20036;-68
2023/12/27 00:09:02;;;;;;;;;;;26.90;99.90;;;;;;4953046;28;20089;-67
2023/12/27 00:11:29;;;;;;;;;;;26.90;99.90;;;;;;4953145;28;19914;-71
2023/12/27 00:13:56;;;;;;;;;;;26.70;99.90;;;;;;4953266;28;19922;-72
2023/12/27 00:16:22;;;;;;;;;;;26.70;99.90;;;;;;4953246;28;19910;-66
2023/12/27 00:18:49;;;;;;;;;;;26.30;99.90;;;;;;4952973;29;20379;-71
2023/12/27 00:21:16;;;;;;;;;;;26.20;99.90;;;;;;4952980;28;19956;-70
2023/12/27 00:23:42;;;;;;;;;;;26.10;99.90;;;;;;4952841;28;19992;-66
2023/12/27 00:26:09;;;;;;;;;;;26.00;99.90;;;;;;4953077;28;19934;-68
2023/12/27 00:28:36;;;;;;;;;;;25.90;99.90;;;;;;4952824;28;19911;-66
2023/12/27 00:31:02;;;;;;;;;;;25.80;99.90;;;;;;4953016;29;19910;-67
2023/12/27 00:33:29;;;;;;;;;;;25.70;99.90;;;;;;4953002;29;20005;-67
2023/12/27 00:35:56;;;;;;;;;;;25.60;99.90;;;;;;4952723;28;20380;-69
2023/12/27 00:38:22;;;;;;;;;;;25.50;99.90;;;;;;4952668;28;20002;-68
2023/12/27 00:40:49;;;;;;;;;;;25.50;99.90;;;;;;4952666;29;19914;-71
2023/12/27 00:43:16;;;;;;;;;;;25.30;99.90;;;;;;4952155;28;19994;-69
2023/12/27 00:45:42;;;;;;;;;;;25.30;99.90;;;;;;4952694;28;20378;-68
2023/12/27 00:48:09;;;;;;;;;;;25.20;99.90;;;;;;4952603;29;20438;-67
2023/12/27 00:50:35;;;;;;;;;;;25.30;99.90;;;;;;4952639;29;19921;-67
2023/12/27 00:53:03;;;;;;;;;;;25.50;99.90;;;;;;4952299;28;20360;-71
2023/12/27 00:55:30;;;;;;;;;;;25.80;99.90;;;;;;4952434;28;19911;-73
2023/12/27 00:57:57;;;;;;;;;;;26.00;99.90;;;;;;4952395;28;19964;-68
2023/12/27 01:00:24;;;;;;;;;;;26.10;99.90;;;;;;4952605;29;19914;-68
2023/12/27 01:02:51;;;;;;;;;;;26.10;99.90;;;;;;4952898;28;20272;-73
2023/12/27 01:05:18;;;;;;;;;;;26.20;99.90;;;;;;4952326;28;19910;-67
2023/12/27 01:07:45;;;;;;;;;;;26.00;99.90;;;;;;4951227;28;19910;-67
2023/12/27 01:10:14;;;;;;;;;;;25.90;99.90;;;;;;4952443;28;19960;-68
2023/12/27 01:12:41;;;;;;;;;;;25.80;99.90;;;;;;4952104;28;19910;-66
2023/12/27 01:15:08;;;;;;;;;;;25.80;99.90;;;;;;4952106;28;19915;-70
2023/12/27 01:17:42;;;;;;;;;;;25.80;99.90;;;;;;4952135;29;20392;-66
2023/12/27 01:20:09;;;;;;;;;;;25.90;99.90;;;;;;4950958;28;19914;-69
2023/12/27 01:22:36;;;;;;;;;;;25.90;99.90;;;;;;4952003;29;19957;-68
2023/12/27 01:25:03;;;;;;;;;;;25.90;99.90;;;;;;4952166;28;19910;-71
2023/12/27 01:27:30;;;;;;;;;;;25.90;99.90;;;;;;4952165;28;19910;-69
2023/12/27 01:29:57;;;;;;;;;;;25.90;99.90;;;;;;4952241;28;19914;-72
2023/12/27 01:32:26;;;;;;;;;;;25.90;99.90;;;;;;4951936;28;20081;-66
2023/12/27 01:34:53;;;;;;;;;;;25.70;99.90;;;;;;4951906;29;20322;-72
2023/12/27 01:37:20;;;;;;;;;;;25.80;99.90;;;;;;4951953;28;19945;-67
2023/12/27 01:39:47;;;;;;;;;;;26.00;99.90;;;;;;4952052;29;19961;-70
2023/12/27 01:42:14;;;;;;;;;;;26.10;99.90;;;;;;4951801;28;19914;-71
2023/12/27 01:44:41;;;;;;;;;;;26.20;99.90;;;;;;4952009;28;19910;-65
2023/12/27 01:47:08;;;;;;;;;;;26.10;99.90;;;;;;4951822;28;19910;-68
2023/12/27 01:49:36;;;;;;;;;;;26.00;99.90;;;;;;4951950;28;19925;-75
2023/12/27 01:52:03;;;;;;;;;;;25.90;99.90;;;;;;4951754;28;19911;-69
2023/12/27 01:54:30;;;;;;;;;;;26.10;99.90;;;;;;4953128;29;19957;-68
2023/12/27 01:56:57;;;;;;;;;;;26.20;99.90;;;;;;4955534;28;19910;-71
2023/12/27 01:59:24;;;;;;;;;;;26.10;99.90;;;;;;4955163;29;20292;-72
2023/12/27 02:01:53;;;;;;;;;;;26.10;99.90;;;;;;4955252;28;19925;-68
2023/12/27 02:04:20;;;;;;;;;;;26.30;99.90;;;;;;4955243;28;20375;-72
2023/12/27 02:06:47;;;;;;;;;;;26.50;99.90;;;;;;4953816;28;19953;-72
2023/12/27 02:09:14;;;;;;;;;;;26.50;99.90;;;;;;4955055;28;20393;-71
2023/12/27 02:11:42;;;;;;;;;;;26.60;99.90;;;;;;4954668;28;20276;-71
2023/12/27 02:14:09;;;;;;;;;;;26.60;99.90;;;;;;4953852;29;20299;-70
2023/12/27 02:16:45;;;;;;;;;;;26.90;99.90;;;;;;4954936;28;19915;-67
2023/12/27 02:19:13;;;;;;;;;;;27.50;99.90;;;;;;4953755;28;19929;-69
2023/12/27 02:21:43;;;;;;;;;;;28.00;99.90;;;;;;4954800;28;19915;-66
2023/12/27 02:24:14;;;;;;;;;;;28.10;99.90;;;;;;4954927;28;19917;-67
2023/12/27 02:26:41;;;;;;;;;;;28.00;99.90;;;;;;4954622;28;20283;-70
2023/12/27 02:29:07;;;;;;;;;;;28.40;99.90;;;;;;4954849;29;20003;-67
2023/12/27 02:31:34;;;;;;;;;;;28.70;99.90;;;;;;4954629;28;19949;-68
2023/12/27 02:34:10;;;;;;;;;;;29.00;99.90;;;;;;4954765;29;20368;-67
2023/12/27 02:36:37;;;;;;;;;;;29.20;99.90;;;;;;4954782;28;20390;-70
2023/12/27 02:39:09;;;;;;;;;;;29.60;99.80;;;;;;4954270;28;19919;-67
2023/12/27 02:41:36;;;;;;;;;;;29.90;99.10;;;;;;4954558;28;19917;-66
2023/12/27 02:44:03;;;;;;;;;;;29.80;98.10;;;;;;4953364;28;19933;-68
2023/12/27 02:46:33;;;;;;;;;;;29.30;98.30;;;;;;4954431;28;19917;-68
2023/12/27 02:49:00;;;;;;;;;;;28.80;98.90;;;;;;4954460;28;19956;-66
2023/12/27 02:51:30;;;;;;;;;;;28.20;99.30;;;;;;4954194;28;20371;-71
2023/12/27 02:53:57;;;;;;;;;;;27.80;99.90;;;;;;4954306;28;19920;-73
2023/12/27 02:56:24;;;;;;;;;;;27.20;99.90;;;;;;4954283;28;19914;-67
2023/12/27 02:58:51;;;;;;;;;;;26.80;99.90;;;;;;4954535;28;19919;-74
2023/12/27 03:01:18;;;;;;;;;;;26.60;99.90;;;;;;4954322;28;19911;-69
2023/12/27 03:03:45;;;;;;;;;;;26.30;99.90;;;;;;4953087;29;20303;-72
2023/12/27 03:06:15;;;;;;;;;;;26.00;99.90;;;;;;4953706;28;19911;-73
2023/12/27 03:08:42;;;;;;;;;;;25.70;99.90;;;;;;4954252;28;19943;-72
2023/12/27 03:11:09;;;;;;;;;;;25.50;99.90;;;;;;4952914;28;19914;-66
2023/12/27 03:13:36;;;;;;;;;;;25.20;99.90;;;;;;4954217;29;19915;-68
2023/12/27 03:16:07;;;;;;;;;;;25.10;99.90;;;;;;4953937;29;20224;-66
2023/12/27 03:18:34;;;;;;;;;;;25.00;99.90;;;;;;4952707;29;20345;-68
2023/12/27 03:21:05;;;;;;;;;;;24.90;99.90;;;;;;4953940;28;19949;-68
2023/12/27 03:23:31;;;;;;;;;;;24.60;99.90;;;;;;4954091;28;20376;-71
2023/12/27 03:25:58;;;;;;;;;;;23.50;99.90;;;;;;4954068;29;19999;-68
2023/12/27 03:28:29;;;;;;;;;;;22.40;99.90;;;;;;4953895;28;20007;-68
2023/12/27 03:30:57;;;;;;;;;;;21.40;99.90;;;;;;4953813;29;19917;-71
2023/12/27 03:33:24;;;;;;;;;;;20.70;99.90;;;;;;4953701;28;19919;-70
2023/12/27 03:35:54;;;;;;;;;;;20.00;99.90;;;;;;4953812;28;20001;-69
2023/12/27 03:38:21;;;;;;;;;;;19.70;99.90;;;;;;4953739;28;19918;-69
2023/12/27 03:40:48;;;;;;;;;;;19.30;99.90;;;;;;4953701;29;19922;-69
2023/12/27 03:43:16;;;;;;;;;;;19.20;99.90;;;;;;4953843;28;20010;-68
2023/12/27 03:45:45;;;;;;;;;;;19.00;99.90;;;;;;4953494;28;19950;-68
2023/12/27 03:48:12;;;;;;;;;;;19.00;99.90;;;;;;4953956;28;19953;-75
2023/12/27 03:50:39;;;;;;;;;;;19.00;99.90;;;;;;4949666;28;19922;-73
2023/12/27 03:53:07;;;;;;;;;;;19.20;99.90;;;;;;4953435;28;20287;-74
2023/12/27 03:55:34;;;;;;;;;;;19.10;99.90;;;;;;4953619;29;20386;-67
2023/12/27 03:58:01;;;;;;;;;;;19.00;99.90;;;;;;4953394;28;19926;-67
2023/12/27 04:00:28;;;;;;;;;;;19.30;99.90;;;;;;4953555;29;19965;-66
2023/12/27 04:02:54;;;;;;;;;;;19.60;99.90;;;;;;4953635;29;19997;-67
2023/12/27 04:05:21;;;;;;;;;;;19.80;99.90;;;;;;4952748;29;20340;-65
2023/12/27 04:07:48;;;;;;;;;;;20.00;99.90;;;;;;4952229;28;19911;-66
2023/12/27 04:10:17;;;;;;;;;;;20.10;99.90;;;;;;4952148;28;20392;-68
2023/12/27 04:12:43;;;;;;;;;;;20.20;99.90;;;;;;4953165;29;19921;-67
2023/12/27 04:15:10;;;;;;;;;;;20.30;99.90;;;;;;4953172;28;19911;-66
2023/12/27 04:17:37;;;;;;;;;;;20.60;99.90;;;;;;4952233;28;19969;-67
2023/12/27 04:20:04;;;;;;;;;;;21.10;99.90;;;;;;4953331;28;19919;-66
2023/12/27 04:22:31;;;;;;;;;;;21.70;99.90;;;;;;4953058;29;19923;-68
2023/12/27 04:24:58;;;;;;;;;;;22.30;99.90;;;;;;4953323;29;19910;-76
2023/12/27 04:27:24;;;;;;;;;;;22.90;99.90;;;;;;4952981;29;20390;-69
2023/12/27 04:29:51;;;;;;;;;;;23.10;99.90;;;;;;4953030;29;19914;-65
2023/12/27 04:32:18;;;;;;;;;;;23.10;99.90;;;;;;4952801;29;19910;-67
2023/12/27 04:34:45;;;;;;;;;;;23.40;99.90;;;;;;4953004;29;19910;-65
2023/12/27 04:37:18;;;;;;;;;;;23.30;99.90;;;;;;4952847;28;19911;-72
2023/12/27 04:39:44;;;;;;;;;;;23.00;99.90;;;;;;4952694;29;19919;-72
2023/12/27 04:42:11;;;;;;;;;;;23.00;99.90;;;;;;4952687;28;19911;-67
2023/12/27 04:44:40;;;;;;;;;;;22.60;99.90;;;;;;4952766;28;20358;-66
2023/12/27 04:47:07;;;;;;;;;;;22.20;99.90;;;;;;4952713;29;19910;-67
2023/12/27 04:49:34;;;;;;;;;;;22.10;99.90;;;;;;4952701;28;19954;-65
2023/12/27 04:52:03;;;;;;;;;;;22.00;99.90;;;;;;4953084;29;19941;-66
2023/12/27 04:54:29;;;;;;;;;;;21.90;99.90;;;;;;4951394;29;19914;-68
2023/12/27 04:56:56;;;;;;;;;;;21.90;99.90;;;;;;4952615;28;19957;-69
2023/12/27 04:59:23;;;;;;;;;;;21.90;99.90;;;;;;4952564;28;20399;-68
2023/12/27 05:01:50;;;;;;;;;;;21.80;99.90;;;;;;4951968;28;19910;-66
2023/12/27 05:04:17;;;;;;;;;;;22.10;99.90;;;;;;4952293;28;19917;-71
2023/12/27 05:06:44;;;;;;;;;;;22.60;99.90;;;;;;4952360;28;20286;-76
2023/12/27 05:09:11;;;;;;;;;;;23.40;99.90;;;;;;4952394;29;19971;-67
2023/12/27 05:11:37;;;;;;;;;;;24.40;99.90;;;;;;4952187;29;20010;-72
2023/12/27 05:14:04;;;;;;;;;;;24.80;99.90;;;;;;4952560;28;19915;-69
2023/12/27 05:16:31;;;;;;;;;;;25.00;99.90;;;;;;4952423;29;19918;-72
2023/12/27 05:18:57;;;;;;;;;;;25.10;99.90;;;;;;4952097;28;19919;-73
2023/12/27 05:21:24;;;;;;;;;;;25.50;99.90;;;;;;4951993;28;20001;-66
2023/12/27 05:23:50;;;;;;;;;;;26.40;99.90;;;;;;4952253;28;19925;-71
2023/12/27 05:26:17;;;;;;;;;;;26.70;99.90;;;;;;4952253;28;20379;-70
2023/12/27 05:28:44;;;;;;;;;;;26.40;99.90;;;;;;4952037;28;19921;-66
2023/12/27 05:31:10;;;;;;;;;;;26.00;99.90;;;;;;4952038;28;19968;-67
2023/12/27 05:33:37;;;;;;;;;;;26.30;99.90;;;;;;4951978;28;20401;-67
2023/12/27 05:36:04;;;;;;;;;;;26.60;99.90;;;;;;4952142;29;20013;-67
2023/12/27 05:38:30;;;;;;;;;;;27.20;99.90;;;;;;4951748;28;19927;-66
2023/12/27 05:40:57;;;;;;;;;;;26.90;99.90;;;;;;4951801;28;19968;-68
2023/12/27 05:43:23;;;;;;;;;;;26.40;99.90;;;;;;4951843;28;19914;-66
2023/12/27 05:45:50;;;;;;;;;;;25.90;99.90;;;;;;4951943;29;19964;-66
2023/12/27 05:48:17;;;;;;;;;;;25.60;99.90;;;;;;4951951;29;19915;-65
2023/12/27 05:50:43;;;;;;;;;;;25.50;99.90;;;;;;4951607;28;19930;-66
2023/12/27 05:53:10;;;;;;;;;;;25.50;99.90;;;;;;4951546;28;19914;-66
2023/12/27 05:55:37;;;;;;;;;;;25.20;99.90;;;;;;4952147;28;19911;-68
2023/12/27 05:58:04;;;;;;;;;;;25.30;99.90;;;;;;4951923;29;20482;-66
2023/12/27 06:00:30;;;;;;;;;;;25.60;99.90;;;;;;4951541;28;20394;-67
2023/12/27 06:02:57;;;;;;;;;;;26.00;99.90;;;;;;4951757;29;19911;-66
2023/12/27 06:05:24;;;;;;;;;;;26.10;99.90;;;;;;4951465;28;20037;-69
2023/12/27 06:07:51;;;;;;;;;;;26.00;99.90;;;;;;4951452;28;19918;-65
2023/12/27 06:10:18;;;;;;;;;;;25.90;99.90;;;;;;4951723;29;20395;-68
2023/12/27 06:12:44;;;;;;;;;;;25.70;99.90;;;;;;4951461;29;19917;-73
2023/12/27 06:15:11;;;;;;;;;;;25.50;99.90;;;;;;4951330;29;19910;-66
2023/12/27 06:17:38;;;;;;;;;;;25.50;99.90;;;;;;4951518;29;20001;-71
2023/12/27 06:20:05;;;;;;;;;;;25.70;99.90;;;;;;4951528;29;19969;-66
2023/12/27 06:22:32;;;;;;;;;;;25.60;99.90;;;;;;4951341;29;19922;-68
2023/12/27 06:24:59;;;;;;;;;;;25.30;99.90;;;;;;4951495;29;19918;-67
2023/12/27 06:27:25;;;;;;;;;;;25.40;99.90;;;;;;4951574;28;20264;-66
2023/12/27 06:29:52;;;;;;;;;;;25.50;99.90;;;;;;4949952;29;20356;-66
2023/12/27 06:32:18;;;;;;;;;;;25.60;99.90;;;;;;4951300;29;19910;-66
2023/12/27 06:34:45;;;;;;;;;;;25.80;99.90;;;;;;4951391;28;19911;-66
2023/12/27 06:37:12;;;;;;;;;;;25.70;99.90;;;;;;4951233;28;19910;-67
2023/12/27 06:39:38;;;;;;;;;;;25.50;99.90;;;;;;4951334;28;20364;-70
2023/12/27 06:42:05;;;;;;;;;;;25.40;99.90;;;;;;4954511;28;20367;-69
2023/12/27 06:44:32;;;;;;;;;;;25.40;99.90;;;;;;4954733;28;19914;-66
2023/12/27 06:46:58;;;;;;;;;;;25.20;99.90;;;;;;4954585;29;19910;-63
2023/12/27 06:49:25;;;;;;;;;;;25.10;99.90;;;;;;4954365;29;20376;-67
2023/12/27 06:51:51;;;;;;;;;;;24.80;99.90;;;;;;4954336;28;19915;-71
2023/12/27 06:54:18;;;;;;;;;;;24.60;99.90;;;;;;4954173;28;19910;-65
2023/12/27 06:56:45;;;;;;;;;;;24.60;99.90;;;;;;4954262;29;19910;-66
2023/12/27 06:59:12;;;;;;;;;;;24.60;99.90;;;;;;4954402;28;19918;-66
2023/12/27 07:01:38;;;;;;;;;;;24.40;99.90;;;;;;4954399;28;20001;-68
2023/12/27 07:04:05;;;;;;;;;;;24.40;99.90;;;;;;4954363;28;19915;-65
2023/12/27 07:06:32;;;;;;;;;;;24.10;99.90;;;;;;4954106;28;19911;-65
2023/12/27 07:08:59;;;;;;;;;;;24.10;99.90;;;;;;4954249;29;19921;-66
2023/12/27 07:11:25;;;;;;;;;;;23.90;99.90;;;;;;4954229;28;19910;-65
2023/12/27 07:13:53;;;;;;;;;;;23.60;99.90;;;;;;4954167;29;19910;-65
2023/12/27 07:16:20;;;;;;;;;;;23.20;99.90;;;;;;4953931;28;19917;-70
2023/12/27 07:18:46;;;;;;;;;;;23.10;99.90;;;;;;4953850;28;19925;-66
2023/12/27 07:21:13;;;;;;;;;;;23.40;99.90;;;;;;4954057;28;19933;-64
2023/12/27 07:23:40;;;;;;;;;;;23.80;99.90;;;;;;4953872;28;20366;-64
2023/12/27 07:26:11;;;;;;;;;;;24.20;99.90;;;;;;4953800;28;19911;-65
2023/12/27 07:28:37;;;;;;;;;;;24.40;99.90;;;;;;4953875;29;19911;-71
2023/12/27 07:31:04;;;;;;;;;;;24.70;99.90;;;;;;4953964;29;20278;-65
2023/12/27 07:33:31;;;;;;;;;;;24.80;99.90;;;;;;4953577;28;20338;-66
2023/12/27 07:35:57;;;;;;;;;;;24.80;99.90;;;;;;4953920;29;20320;-67
2023/12/27 07:38:26;;;;;;;;;;;24.70;99.90;;;;;;4953544;29;19919;-65
2023/12/27 07:40:55;;;;;;;;;;;24.80;99.90;;;;;;4953652;28;19918;-65
2023/12/27 07:43:23;;;;;;;;;;;24.80;99.90;;;;;;4953529;28;19911;-65
2023/12/27 07:45:49;;;;;;;;;;;24.70;99.90;;;;;;4953686;28;20451;-64
2023/12/27 07:48:16;;;;;;;;;;;24.90;99.90;;;;;;4953736;29;19936;-65
2023/12/27 07:50:43;;;;;;;;;;;24.70;99.90;;;;;;4953464;29;20001;-65
2023/12/27 07:53:10;;;;;;;;;;;24.20;99.90;;;;;;4953473;28;20268;-70
2023/12/27 07:55:37;;;;;;;;;;;24.00;99.90;;;;;;4953651;28;19922;-64
2023/12/27 07:58:04;;;;;;;;;;;23.80;99.90;;;;;;4953434;29;19930;-64
2023/12/27 08:00:31;;;;;;;;;;;23.90;99.90;;;;;;4953568;29;19917;-64
2023/12/27 08:02:58;;;;;;;;;;;23.80;99.90;;;;;;4953044;28;19981;-65
2023/12/27 08:05:25;;;;;;;;;;;23.90;99.90;;;;;;4953468;28;20390;-71
2023/12/27 08:07:52;;;;;;;;;;;23.90;99.90;;;;;;4953527;28;20363;-64
2023/12/27 08:10:19;;;;;;;;;;;23.90;99.90;;;;;;4953301;28;19964;-66
2023/12/27 08:12:46;;;;;;;;;;;23.90;99.90;;;;;;4953395;29;19914;-63
2023/12/27 08:15:12;;;;;;;;;;;23.90;99.90;;;;;;4953275;29;19941;-67
2023/12/27 08:17:39;;;;;;;;;;;23.70;99.90;;;;;;4953229;29;19921;-66
2023/12/27 08:20:06;;;;;;;;;;;23.40;99.90;;;;;;4953122;29;19937;-65
2023/12/27 08:22:32;;;;;;;;;;;23.30;99.90;;;;;;4952997;29;20363;-69
2023/12/27 08:24:59;;;;;;;;;;;23.20;99.90;;;;;;4953124;29;19910;-70
2023/12/27 08:27:26;;;;;;;;;;;23.20;99.90;;;;;;4953059;28;19965;-64
2023/12/27 08:29:56;;;;;;;;;;;23.10;99.90;;;;;;4952194;28;21326;-66
2023/12/27 08:32:23;;;;;;;;;;;23.00;99.90;;;;;;4952765;28;19918;-70
2023/12/27 08:34:49;;;;;;;;;;;23.00;99.90;;;;;;4953098;28;19918;-68
2023/12/27 08:37:16;;;;;;;;;;;23.00;99.90;;;;;;4952922;28;19910;-66
2023/12/27 08:39:43;;;;;;;;;;;23.10;99.90;;;;;;4952725;28;19918;-64
2023/12/27 08:42:10;;;;;;;;;;;23.00;99.90;;;;;;4952960;28;19910;-70
2023/12/27 08:44:36;;;;;;;;;;;23.00;99.90;;;;;;4952567;28;19964;-71
2023/12/27 08:47:03;;;;;;;;;;;23.00;99.90;;;;;;4952844;28;19911;-71
2023/12/27 08:49:30;;;;;;;;;;;23.00;99.90;;;;;;4952725;28;19915;-66
2023/12/27 08:51:56;;;;;;;;;;;22.80;99.90;;;;;;4952521;29;19915;-66
2023/12/27 08:54:23;;;;;;;;;;;22.90;99.90;;;;;;4952519;28;20283;-66
2023/12/27 08:56:50;;;;;;;;;;;22.80;99.90;;;;;;4952663;29;19941;-65
2023/12/27 08:59:18;;;;;;;;;;;22.80;99.90;;;;;;4952645;28;19918;-67
2023/12/27 09:01:44;;;;;;;;;;;22.80;99.90;;;;;;4952448;28;19911;-66
2023/12/27 09:04:11;;;;;;;;;;;22.70;99.90;;;;;;4951877;28;20013;-66
2023/12/27 09:06:38;;;;;;;;;;;22.70;99.90;;;;;;4952605;28;19910;-70
2023/12/27 09:09:04;;;;;;;;;;;22.70;99.90;;;;;;4952362;28;19918;-65
2023/12/27 09:11:31;;;;;;;;;;;22.70;99.90;;;;;;4950988;29;20314;-65
2023/12/27 09:13:58;;;;;;;;;;;22.70;99.90;;;;;;4952369;29;19910;-65
2023/12/27 09:16:24;;;;;;;;;;;22.60;99.90;;;;;;4952147;28;19910;-65
2023/12/27 09:18:51;;;;;;;;;;;22.60;99.90;;;;;;4952350;28;19925;-70
2023/12/27 09:21:17;;;;;;;;;;;22.50;99.90;;;;;;4952185;29;19911;-67
2023/12/27 09:23:44;;;;;;;;;;;22.50;99.90;;;;;;4952168;29;19926;-66
2023/12/27 09:26:12;;;;;;;;;;;22.50;99.90;;;;;;4952255;28;19937;-70
2023/12/27 09:28:39;;;;;;;;;;;22.40;99.90;;;;;;4952213;29;20005;-69
2023/12/27 09:31:05;;;;;;;;;;;22.40;99.90;;;;;;4951883;28;19910;-65
2023/12/27 09:33:32;;;;;;;;;;;22.50;99.90;;;;;;4951998;28;20433;-69
2023/12/27 09:35:58;;;;;;;;;;;22.40;99.90;;;;;;4951916;29;19915;-69
2023/12/27 09:38:25;;;;;;;;;;;22.40;99.90;;;;;;4951932;28;19923;-68
2023/12/27 09:40:52;;;;;;;;;;;22.40;99.90;;;;;;4952025;28;19915;-66
2023/12/27 09:43:19;;;;;;;;;;;22.30;99.90;;;;;;4952202;29;19957;-66
2023/12/27 09:45:46;;;;;;;;;;;22.30;99.90;;;;;;4951980;29;19917;-69
2023/12/27 09:48:15;;;;;;;;;;;22.10;99.90;;;;;;4951835;29;19917;-66
2023/12/27 09:50:42;;;;;;;;;;;22.10;99.90;;;;;;4951873;28;20394;-65
2023/12/27 09:53:10;;;;;;;;;;;22.10;99.90;;;;;;4951813;28;19910;-65
2023/12/27 09:55:37;;;;;;;;;;;22.00;99.90;;;;;;4951809;28;20283;-65
2023/12/27 09:58:04;;;;;;;;;;;21.90;99.90;;;;;;4951656;29;19922;-69
2023/12/27 10:00:33;;;;;;;;;;;21.90;99.90;;;;;;4951963;28;19911;-65
2023/12/27 10:03:00;;;;;;;;;;;21.90;99.90;;;;;;4951804;29;19914;-67
2023/12/27 10:05:31;;;;;;;;;;;21.80;99.90;;;;;;4951723;29;19918;-65
2023/12/27 10:07:58;;;;;;;;;;;21.70;99.90;;;;;;4951837;29;19965;-65
2023/12/27 10:10:26;;;;;;;;;;;21.60;99.90;;;;;;4951744;28;20063;-66
2023/12/27 10:12:52;;;;;;;;;;;21.60;99.90;;;;;;4951767;28;19914;-66
2023/12/27 10:15:19;;;;;;;;;;;21.60;99.90;;;;;;4952583;28;19910;-65
2023/12/27 10:17:46;;;;;;;;;;;21.50;99.90;;;;;;4953656;28;20268;-67
2023/12/27 10:20:30;;;;;;;;;;;21.50;99.90;;;;;;4955092;29;19914;-67
2023/12/27 10:22:56;;;;;;;;;;;21.40;99.90;;;;;;4954982;29;20021;-65
2023/12/27 10:25:26;;;;;;;;;;;21.40;99.90;;;;;;4954939;28;19914;-65
2023/12/27 10:27:52;;;;;;;;;;;21.40;99.90;;;;;;4953631;28;19910;-66
2023/12/27 10:30:19;;;;;;;;;;;21.30;99.90;;;;;;4955057;28;19918;-70
2023/12/27 10:32:56;;;;;;;;;;;21.30;99.90;;;;;;4954683;28;19910;-67
2023/12/27 10:35:22;;;;;;;;;;;21.20;99.90;;;;;;4954812;28;19964;-70
2023/12/27 10:37:58;;;;;;;;;;;21.10;99.90;;;;;;4954619;29;19914;-71
2023/12/27 10:40:24;;;;;;;;;;;21.00;99.90;;;;;;4954864;29;19997;-66
2023/12/27 10:42:51;;;;;;;;;;;21.00;99.90;;;;;;4954761;28;19917;-69
2023/12/27 10:45:19;;;;;;;;;;;20.90;99.90;;;;;;4954795;29;19906;-67
2023/12/27 10:47:46;;;;;;;;;;;20.90;99.90;;;;;;4954861;28;19910;-67
2023/12/27 10:50:14;;;;;;;;;;;20.90;99.90;;;;;;4954490;28;19933;-68
2023/12/27 10:52:41;;;;;;;;;;;20.80;99.90;;;;;;4954467;29;19918;-67
2023/12/27 10:55:09;;;;;;;;;;;20.80;99.90;;;;;;4954393;29;19911;-66
2023/12/27 10:57:37;;;;;;;;;;;20.70;99.90;;;;;;4954409;28;19910;-66
2023/12/27 11:00:08;;;;;;;;;;;20.80;99.90;;;;;;4954391;28;20428;-70
2023/12/27 11:02:36;;;;;;;;;;;20.70;99.90;;;;;;4954268;28;19917;-69
2023/12/27 11:05:03;;;;;;;;;;;20.70;99.90;;;;;;4954325;28;19911;-68
2023/12/27 11:07:32;;;;;;;;;;;20.70;99.90;;;;;;4954209;28;19911;-65
2023/12/27 11:09:59;;;;;;;;;;;20.70;99.90;;;;;;4954079;28;19917;-66
2023/12/27 11:12:28;;;;;;;;;;;20.70;99.90;;;;;;4954059;28;19917;-66
2023/12/27 11:14:55;;;;;;;;;;;20.70;99.90;;;;;;4954088;28;19917;-69
2023/12/27 11:17:22;;;;;;;;;;;20.60;99.90;;;;;;4954180;28;20382;-69
2023/12/27 11:19:51;;;;;;;;;;;20.60;99.90;;;;;;4953995;29;19941;-68
2023/12/27 11:22:18;;;;;;;;;;;20.70;99.90;;;;;;4954085;28;20283;-70
2023/12/27 11:24:44;;;;;;;;;;;20.70;99.90;;;;;;4954094;29;19914;-67
2023/12/27 11:27:11;;;;;;;;;;;20.60;99.90;;;;;;4953766;29;19911;-66
2023/12/27 11:29:38;;;;;;;;;;;20.70;99.90;;;;;;4954373;28;19954;-67
2023/12/27 11:32:06;;;;;;;;;;;20.60;99.90;;;;;;4953756;29;19911;-66
2023/12/27 11:34:34;;;;;;;;;;;20.60;99.90;;;;;;4953915;28;19910;-66
2023/12/27 11:37:01;;;;;;;;;;;20.60;99.90;;;;;;4954027;29;19910;-65
2023/12/27 11:39:29;;;;;;;;;;;20.50;99.90;;;;;;4953984;28;20382;-71
2023/12/27 11:41:58;;;;;;;;;;;20.50;99.90;;;;;;4953694;28;19911;-66
2023/12/27 11:44:34;;;;;;;;;;;20.50;99.90;;;;;;4953763;28;19915;-71
2023/12/27 11:47:01;;;;;;;;;;;20.40;99.90;;;;;;4953852;28;19911;-70
2023/12/27 11:49:28;;;;;;;;;;;20.40;99.90;;;;;;4953666;28;19918;-65
2023/12/27 11:51:54;;;;;;;;;;;20.40;99.90;;;;;;4952430;29;20267;-65
2023/12/27 11:54:22;;;;;;;;;;;20.40;99.90;;;;;;4953897;29;20382;-65
2023/12/27 11:56:49;;;;;;;;;;;20.40;99.90;;;;;;4953616;29;19914;-68
2023/12/27 11:59:15;;;;;;;;;;;20.30;99.90;;;;;;4953593;29;19919;-66
2023/12/27 12:01:42;;;;;;;;;;;20.30;99.90;;;;;;4953990;29;19911;-66
2023/12/27 12:04:27;;;;;;;;;;;20.30;99.90;;;;;;4954477;28;20056;-71
2023/12/27 12:06:54;;;;;;;;;;;20.20;99.90;;;;;;4953917;29;19930;-70
2023/12/27 12:09:36;;;;;;;;;;;20.30;99.90;;;;;;4953189;29;20306;-69
2023/12/27 12:12:10;;;;;;;;;;;20.20;99.90;;;;;;4953204;28;19917;-70
2023/12/27 12:14:39;;;;;;;;;;;20.20;99.90;;;;;;4953260;29;19918;-67
2023/12/27 12:17:09;;;;;;;;;;;20.20;99.90;;;;;;4953055;28;19914;-69
2023/12/27 12:19:36;;;;;;;;;;;20.20;99.90;;;;;;4953319;29;19919;-67
2023/12/27 12:22:03;;;;;;;;;;;20.20;99.90;;;;;;4953217;28;19919;-70
2023/12/27 12:24:30;;;;;;;;;;;20.20;99.90;;;;;;4953438;28;20347;-66
2023/12/27 12:26:57;;;;;;;;;;;20.20;99.90;;;;;;4953194;28;19926;-65
2023/12/27 12:29:24;;;;;;;;;;;20.10;99.90;;;;;;4953086;28;19915;-66
2023/12/27 12:31:54;;;;;;;;;;;20.00;99.90;;;;;;4952858;28;20370;-67
2023/12/27 12:34:21;;;;;;;;;;;20.00;99.90;;;;;;4953128;28;19997;-66
2023/12/27 12:36:47;;;;;;;;;;;20.00;99.90;;;;;;4953060;28;19911;-66
2023/12/27 12:39:16;;;;;;;;;;;20.00;99.90;;;;;;4952122;28;19930;-66
2023/12/27 12:41:46;;;;;;;;;;;20.00;99.90;;;;;;4952687;28;19911;-67
2023/12/27 12:44:13;;;;;;;;;;;20.00;99.90;;;;;;4952871;28;20426;-66
2023/12/27 12:46:40;;;;;;;;;;;19.90;99.90;;;;;;4952650;29;19946;-66
2023/12/27 12:49:07;;;;;;;;;;;19.90;99.90;;;;;;4952874;29;20453;-68
2023/12/27 12:51:34;;;;;;;;;;;19.80;99.90;;;;;;4952917;28;19917;-69
2023/12/27 12:54:01;;;;;;;;;;;19.80;99.90;;;;;;4952674;28;19947;-66
2023/12/27 12:56:27;;;;;;;;;;;19.80;99.90;;;;;;4952465;28;20275;-65
2023/12/27 12:58:54;;;;;;;;;;;19.80;99.90;;;;;;4952653;28;19983;-66
2023/12/27 13:01:21;;;;;;;;;;;19.70;99.90;;;;;;4952645;29;19911;-65
2023/12/27 13:03:48;;;;;;;;;;;19.70;99.90;;;;;;4952678;29;20360;-65
2023/12/27 13:06:16;;;;;;;;;;;19.70;99.90;;;;;;4952475;28;19919;-66
2023/12/27 13:08:54;;;;;;;;;;;19.70;99.90;;;;;;4952508;29;20374;-68
2023/12/27 13:11:23;;;;;;;;;;;19.70;99.90;;;;;;4952431;29;19915;-65
2023/12/27 13:13:49;;;;;;;;;;;19.80;99.90;;;;;;4952500;28;19911;-65
2023/12/27 13:16:16;;;;;;;;;;;19.80;99.90;;;;;;4952529;28;19918;-65
2023/12/27 13:18:43;;;;;;;;;;;19.70;99.90;;;;;;4952365;29;20335;-65
2023/12/27 13:21:13;;;;;;;;;;;19.60;99.90;;;;;;4952402;28;19910;-67
2023/12/27 13:23:40;;;;;;;;;;;19.70;99.90;;;;;;4952407;28;19923;-66
2023/12/27 13:26:06;;;;;;;;;;;19.70;99.90;;;;;;4952424;29;19914;-65
2023/12/27 13:28:33;;;;;;;;;;;19.70;99.90;;;;;;4952295;29;19956;-66
2023/12/27 13:31:00;;;;;;;;;;;19.60;99.90;;;;;;4952217;28;20352;-65
2023/12/27 13:33:27;;;;;;;;;;;19.60;99.90;;;;;;4951925;28;19918;-65
2023/12/27 13:35:53;;;;;;;;;;;19.70;99.90;;;;;;4952230;29;19911;-66
2023/12/27 13:38:20;;;;;;;;;;;19.60;99.90;;;;;;4952066;28;19919;-67
2023/12/27 13:40:47;;;;;;;;;;;19.60;99.90;;;;;;4952182;28;19922;-66
2023/12/27 13:43:14;;;;;;;;;;;19.60;99.90;;;;;;4952173;28;19910;-65
2023/12/27 13:45:41;;;;;;;;;;;19.60;99.90;;;;;;4950688;28;19910;-66
2023/12/27 13:48:08;;;;;;;;;;;19.50;99.90;;;;;;4951936;28;20256;-65
2023/12/27 13:50:35;;;;;;;;;;;19.60;99.90;;;;;;4951943;28;19960;-66
2023/12/27 13:53:01;;;;;;;;;;;19.50;99.90;;;;;;4951848;29;20302;-66
2023/12/27 13:55:28;;;;;;;;;;;19.50;99.90;;;;;;4952110;28;19911;-65
2023/12/27 13:57:55;;;;;;;;;;;19.50;99.90;;;;;;4951909;28;19910;-66
2023/12/27 14:00:22;;;;;;;;;;;19.50;99.90;;;;;;4951657;28;20348;-65
2023/12/27 14:02:51;;;;;;;;;;;19.40;99.90;;;;;;4951812;28;19916;-67
2023/12/27 14:05:18;;;;;;;;;;;19.50;99.90;;;;;;4951864;28;19917;-65
2023/12/27 14:07:48;;;;;;;;;;;19.50;99.90;;;;;;4951902;29;19917;-65
2023/12/27 14:10:15;;;;;;;;;;;19.40;99.90;;;;;;4951803;28;20332;-65
2023/12/27 14:12:42;;;;;;;;;;;19.40;99.90;;;;;;4951748;28;20367;-65
2023/12/27 14:15:10;;;;;;;;;;;19.40;99.90;;;;;;4951919;29;19922;-69
2023/12/27 14:17:40;;;;;;;;;;;19.40;99.90;;;;;;4951632;28;20325;-66